Airport View

Enter AWOS ICAO identifier for current METAR.

ex. KFNL

KCPK 250225Z AUTO 03007KT 7SM OVC004 14/14 A3019 RMK AO2 T01410135

25 May 2020 02:24

Frequency: 123.675

Phone: 757-421-0252

Other Area AWOS: KNFE - KPVG - KSFQ - KORF

TAF AMD KORF 250208Z 2502/2524 05007KT 3SM BR OVC002 FM251300 04005KT 5SM BR OVC005 FM251600 03007KT P6SM BKN010 OVC030 FM251800 06006KT P6SM BKN040